KFLD/FLD METAR and TAF weather

Enter ICAO airport designator
Station Type Date Time Source
KFLD METAR 2020/07/15 01:53 UTC NOAA

KFLD 150153Z AUTO 17005KT 10SM CLR 25/18 A2995 RMK AO2 SLP138 T02500183 TSNO


Station Type Date Time Source
KFLD Decoded METAR 2020/07/15 01:53 UTC NOAA

FOND DU LAC COUNTY AIRPORT, WI, United States (KFLD) 43-46N 88-29W 240M
Jul 14, 2020 - 09:53 PM EDT / 2020.07.15 0153 UTC
Wind: from the S (170 degrees) at 6 MPH (5 KT):0
Visibility: 10 mile(s):0
Sky conditions: clear
Temperature: 77.0 F (25.0 C)
Dew Point: 64.9 F (18.3 C)
Relative Humidity: 66%
Pressure (altimeter): 29.95 in. Hg (1014 hPa)
ob: KFLD 150153Z AUTO 17005KT 10SM CLR 25/18 A2995 RMK AO2 SLP138 T02500183 TSNO
cycle: 2

Station Type Date Time Source
KFLD TAF UTC NOAA

Error!

Example: see airport list